sensor_id;sensor_type;location;lat;lon;timestamp;P1;durP1;ratioP1;P2;durP2;ratioP2
75810;SDS011;64449;50.016;19.954;2023-03-05T00:01:49;5.30;;;2.70;;
75810;SDS011;64449;50.016;19.954;2023-03-05T00:03:59;5.40;;;2.70;;
75810;SDS011;64449;50.016;19.954;2023-03-05T00:06:27;7.20;;;3.10;;
75810;SDS011;64449;50.016;19.954;2023-03-05T00:08:56;5.10;;;2.90;;
75810;SDS011;64449;50.016;19.954;2023-03-05T00:11:22;7.00;;;2.90;;
75810;SDS011;64449;50.016;19.954;2023-03-05T00:13:53;6.40;;;3.10;;
75810;SDS011;64449;50.016;19.954;2023-03-05T00:16:19;7.50;;;3.20;;
75810;SDS011;64449;50.016;19.954;2023-03-05T00:18:45;9.30;;;2.90;;
75810;SDS011;64449;50.016;19.954;2023-03-05T00:21:25;8.40;;;2.90;;
75810;SDS011;64449;50.016;19.954;2023-03-05T00:23:52;8.00;;;3.20;;
75810;SDS011;64449;50.016;19.954;2023-03-05T00:26:23;7.10;;;2.80;;
75810;SDS011;64449;50.016;19.954;2023-03-05T00:28:49;7.20;;;3.10;;
75810;SDS011;64449;50.016;19.954;2023-03-05T00:31:17;7.70;;;3.50;;
75810;SDS011;64449;50.016;19.954;2023-03-05T00:33:51;6.30;;;3.00;;
75810;SDS011;64449;50.016;19.954;2023-03-05T00:36:18;9.80;;;3.40;;
75810;SDS011;64449;50.016;19.954;2023-03-05T00:38:44;12.70;;;4.60;;
75810;SDS011;64449;50.016;19.954;2023-03-05T00:41:10;8.30;;;3.50;;
75810;SDS011;64449;50.016;19.954;2023-03-05T00:46:03;6.60;;;2.90;;
75810;SDS011;64449;50.016;19.954;2023-03-05T00:48:28;5.60;;;2.80;;
75810;SDS011;64449;50.016;19.954;2023-03-05T00:53:19;6.40;;;3.10;;
75810;SDS011;64449;50.016;19.954;2023-03-05T00:55:45;7.10;;;3.20;;
75810;SDS011;64449;50.016;19.954;2023-03-05T00:58:11;6.20;;;3.20;;
75810;SDS011;64449;50.016;19.954;2023-03-05T01:03:02;5.90;;;2.40;;
75810;SDS011;64449;50.016;19.954;2023-03-05T01:05:27;6.80;;;3.30;;
75810;SDS011;64449;50.016;19.954;2023-03-05T01:07:53;7.80;;;3.20;;
75810;SDS011;64449;50.016;19.954;2023-03-05T01:10:20;6.90;;;3.00;;
75810;SDS011;64449;50.016;19.954;2023-03-05T01:12:48;7.60;;;2.80;;
75810;SDS011;64449;50.016;19.954;2023-03-05T01:15:14;7.10;;;3.00;;
75810;SDS011;64449;50.016;19.954;2023-03-05T01:17:39;9.10;;;3.50;;
75810;SDS011;64449;50.016;19.954;2023-03-05T01:22:30;4.80;;;2.50;;
75810;SDS011;64449;50.016;19.954;2023-03-05T01:27:21;4.20;;;1.70;;
75810;SDS011;64449;50.016;19.954;2023-03-05T01:29:47;4.60;;;2.00;;
75810;SDS011;64449;50.016;19.954;2023-03-05T01:32:12;4.80;;;1.90;;
75810;SDS011;64449;50.016;19.954;2023-03-05T01:37:03;4.70;;;1.50;;
75810;SDS011;64449;50.016;19.954;2023-03-05T01:39:29;5.80;;;1.90;;
75810;SDS011;64449;50.016;19.954;2023-03-05T01:44:24;4.20;;;1.30;;
75810;SDS011;64449;50.016;19.954;2023-03-05T01:46:51;3.70;;;1.50;;
75810;SDS011;64449;50.016;19.954;2023-03-05T01:54:42;5.60;;;1.80;;
75810;SDS011;64449;50.016;19.954;2023-03-05T01:57:11;4.40;;;1.80;;
75810;SDS011;64449;50.016;19.954;2023-03-05T01:59:39;4.60;;;2.10;;
75810;SDS011;64449;50.016;19.954;2023-03-05T02:02:07;6.50;;;2.50;;
75810;SDS011;64449;50.016;19.954;2023-03-05T02:04:35;5.70;;;2.20;;
75810;SDS011;64449;50.016;19.954;2023-03-05T02:07:06;7.70;;;2.40;;
75810;SDS011;64449;50.016;19.954;2023-03-05T02:09:32;7.00;;;2.50;;
75810;SDS011;64449;50.016;19.954;2023-03-05T02:14:23;6.30;;;2.50;;
75810;SDS011;64449;50.016;19.954;2023-03-05T02:16:50;10.70;;;3.40;;
75810;SDS011;64449;50.016;19.954;2023-03-05T02:19:15;4.20;;;1.70;;
75810;SDS011;64449;50.016;19.954;2023-03-05T02:21:42;8.50;;;3.10;;
75810;SDS011;64449;50.016;19.954;2023-03-05T02:24:13;8.10;;;3.00;;
75810;SDS011;64449;50.016;19.954;2023-03-05T02:26:40;6.00;;;2.50;;
75810;SDS011;64449;50.016;19.954;2023-03-05T02:29:08;6.10;;;2.60;;
75810;SDS011;64449;50.016;19.954;2023-03-05T02:31:37;8.30;;;2.30;;
75810;SDS011;64449;50.016;19.954;2023-03-05T02:34:03;6.70;;;2.30;;
75810;SDS011;64449;50.016;19.954;2023-03-05T02:36:29;4.20;;;1.80;;
75810;SDS011;64449;50.016;19.954;2023-03-05T02:38:54;5.70;;;1.90;;
75810;SDS011;64449;50.016;19.954;2023-03-05T02:41:21;5.20;;;1.90;;
75810;SDS011;64449;50.016;19.954;2023-03-05T02:43:47;4.30;;;1.80;;
75810;SDS011;64449;50.016;19.954;2023-03-05T02:48:38;3.20;;;1.20;;
75810;SDS011;64449;50.016;19.954;2023-03-05T02:51:04;5.50;;;1.60;;
75810;SDS011;64449;50.016;19.954;2023-03-05T02:53:30;4.00;;;1.50;;
75810;SDS011;64449;50.016;19.954;2023-03-05T02:55:56;4.20;;;1.30;;
75810;SDS011;64449;50.016;19.954;2023-03-05T02:58:22;4.70;;;1.50;;
75810;SDS011;64449;50.016;19.954;2023-03-05T03:03:12;3.00;;;1.00;;
75810;SDS011;64449;50.016;19.954;2023-03-05T03:05:38;2.80;;;0.90;;
75810;SDS011;64449;50.016;19.954;2023-03-05T03:10:28;6.10;;;2.10;;
75810;SDS011;64449;50.016;19.954;2023-03-05T03:12:54;4.90;;;1.60;;
75810;SDS011;64449;50.016;19.954;2023-03-05T03:17:45;2.40;;;1.00;;
75810;SDS011;64449;50.016;19.954;2023-03-05T03:22:41;3.00;;;0.90;;
75810;SDS011;64449;50.016;19.954;2023-03-05T03:25:10;3.90;;;1.10;;
75810;SDS011;64449;50.016;19.954;2023-03-05T03:27:39;2.40;;;0.90;;
75810;SDS011;64449;50.016;19.954;2023-03-05T03:30:04;3.50;;;1.40;;
75810;SDS011;64449;50.016;19.954;2023-03-05T03:32:30;3.80;;;1.30;;
75810;SDS011;64449;50.016;19.954;2023-03-05T03:34:56;5.80;;;1.60;;
75810;SDS011;64449;50.016;19.954;2023-03-05T03:37:22;4.70;;;1.70;;
75810;SDS011;64449;50.016;19.954;2023-03-05T03:39:48;4.30;;;1.70;;
75810;SDS011;64449;50.016;19.954;2023-03-05T03:42:17;8.60;;;2.60;;
75810;SDS011;64449;50.016;19.954;2023-03-05T03:44:44;6.40;;;2.50;;
75810;SDS011;64449;50.016;19.954;2023-03-05T03:47:09;5.50;;;2.50;;
75810;SDS011;64449;50.016;19.954;2023-03-05T03:49:34;5.10;;;2.30;;
75810;SDS011;64449;50.016;19.954;2023-03-05T03:52:00;5.80;;;2.20;;
75810;SDS011;64449;50.016;19.954;2023-03-05T03:54:25;5.00;;;2.40;;
75810;SDS011;64449;50.016;19.954;2023-03-05T03:56:51;4.50;;;2.30;;
75810;SDS011;64449;50.016;19.954;2023-03-05T03:59:16;4.50;;;1.80;;
75810;SDS011;64449;50.016;19.954;2023-03-05T04:04:08;7.60;;;2.70;;
75810;SDS011;64449;50.016;19.954;2023-03-05T04:06:35;7.00;;;2.90;;
75810;SDS011;64449;50.016;19.954;2023-03-05T04:11:26;5.50;;;2.10;;
75810;SDS011;64449;50.016;19.954;2023-03-05T04:13:51;4.00;;;1.80;;
75810;SDS011;64449;50.016;19.954;2023-03-05T04:16:17;7.20;;;2.20;;
75810;SDS011;64449;50.016;19.954;2023-03-05T04:18:43;4.10;;;1.60;;
75810;SDS011;64449;50.016;19.954;2023-03-05T04:21:09;7.60;;;2.60;;
75810;SDS011;64449;50.016;19.954;2023-03-05T04:23:35;4.60;;;1.80;;
75810;SDS011;64449;50.016;19.954;2023-03-05T04:28:26;4.70;;;1.90;;
75810;SDS011;64449;50.016;19.954;2023-03-05T04:33:17;5.40;;;1.90;;
75810;SDS011;64449;50.016;19.954;2023-03-05T04:35:43;5.30;;;1.50;;
75810;SDS011;64449;50.016;19.954;2023-03-05T04:38:08;6.80;;;2.10;;
75810;SDS011;64449;50.016;19.954;2023-03-05T04:40:34;5.20;;;2.00;;
75810;SDS011;64449;50.016;19.954;2023-03-05T04:43:00;5.60;;;2.30;;
75810;SDS011;64449;50.016;19.954;2023-03-05T04:47:51;4.50;;;2.00;;
75810;SDS011;64449;50.016;19.954;2023-03-05T04:50:16;4.70;;;1.90;;
75810;SDS011;64449;50.016;19.954;2023-03-05T04:52:42;3.70;;;2.10;;
75810;SDS011;64449;50.016;19.954;2023-03-05T04:55:10;5.50;;;2.20;;
75810;SDS011;64449;50.016;19.954;2023-03-05T04:57:37;4.40;;;1.90;;
75810;SDS011;64449;50.016;19.954;2023-03-05T05:00:04;2.10;;;1.30;;
75810;SDS011;64449;50.016;19.954;2023-03-05T05:02:32;7.30;;;2.20;;
75810;SDS011;64449;50.016;19.954;2023-03-05T05:04:58;5.40;;;1.50;;
75810;SDS011;64449;50.016;19.954;2023-03-05T05:07:23;4.60;;;2.00;;
75810;SDS011;64449;50.016;19.954;2023-03-05T05:09:49;3.70;;;1.40;;
75810;SDS011;64449;50.016;19.954;2023-03-05T05:12:14;5.20;;;2.10;;
75810;SDS011;64449;50.016;19.954;2023-03-05T05:17:05;6.40;;;1.80;;
75810;SDS011;64449;50.016;19.954;2023-03-05T05:19:31;8.60;;;3.20;;
75810;SDS011;64449;50.016;19.954;2023-03-05T05:21:58;6.00;;;2.70;;
75810;SDS011;64449;50.016;19.954;2023-03-05T05:26:49;4.40;;;2.10;;
75810;SDS011;64449;50.016;19.954;2023-03-05T05:29:15;4.80;;;1.90;;
75810;SDS011;64449;50.016;19.954;2023-03-05T05:31:41;4.20;;;2.20;;
75810;SDS011;64449;50.016;19.954;2023-03-05T05:34:06;6.80;;;3.30;;
75810;SDS011;64449;50.016;19.954;2023-03-05T05:36:32;7.30;;;2.80;;
75810;SDS011;64449;50.016;19.954;2023-03-05T05:41:22;7.90;;;3.40;;
75810;SDS011;64449;50.016;19.954;2023-03-05T05:43:48;9.10;;;3.60;;
75810;SDS011;64449;50.016;19.954;2023-03-05T05:48:40;5.80;;;2.20;;
75810;SDS011;64449;50.016;19.954;2023-03-05T05:51:14;4.60;;;2.40;;
75810;SDS011;64449;50.016;19.954;2023-03-05T05:53:42;8.40;;;3.00;;
75810;SDS011;64449;50.016;19.954;2023-03-05T05:56:09;10.10;;;4.00;;
75810;SDS011;64449;50.016;19.954;2023-03-05T05:58:36;9.30;;;3.50;;
75810;SDS011;64449;50.016;19.954;2023-03-05T06:03:52;7.30;;;3.30;;
75810;SDS011;64449;50.016;19.954;2023-03-05T06:06:19;8.00;;;3.80;;
75810;SDS011;64449;50.016;19.954;2023-03-05T06:08:46;7.90;;;2.90;;
75810;SDS011;64449;50.016;19.954;2023-03-05T06:11:12;6.30;;;2.50;;
75810;SDS011;64449;50.016;19.954;2023-03-05T06:13:38;8.60;;;2.90;;
75810;SDS011;64449;50.016;19.954;2023-03-05T06:16:05;9.40;;;3.50;;
75810;SDS011;64449;50.016;19.954;2023-03-05T06:18:33;10.60;;;4.60;;
75810;SDS011;64449;50.016;19.954;2023-03-05T06:21:00;9.50;;;4.70;;
75810;SDS011;64449;50.016;19.954;2023-03-05T06:23:28;8.10;;;4.00;;
75810;SDS011;64449;50.016;19.954;2023-03-05T06:25:54;8.70;;;4.30;;
75810;SDS011;64449;50.016;19.954;2023-03-05T06:28:22;10.20;;;4.60;;
75810;SDS011;64449;50.016;19.954;2023-03-05T06:30:48;12.90;;;6.00;;
75810;SDS011;64449;50.016;19.954;2023-03-05T06:33:13;10.90;;;5.80;;
75810;SDS011;64449;50.016;19.954;2023-03-05T06:35:39;11.10;;;5.70;;
75810;SDS011;64449;50.016;19.954;2023-03-05T06:38:05;9.80;;;5.50;;
75810;SDS011;64449;50.016;19.954;2023-03-05T06:40:31;8.10;;;3.80;;
75810;SDS011;64449;50.016;19.954;2023-03-05T06:42:57;9.10;;;4.50;;
75810;SDS011;64449;50.016;19.954;2023-03-05T06:45:22;9.40;;;4.10;;
75810;SDS011;64449;50.016;19.954;2023-03-05T06:47:48;6.60;;;3.00;;
75810;SDS011;64449;50.016;19.954;2023-03-05T06:50:13;9.80;;;4.50;;
75810;SDS011;64449;50.016;19.954;2023-03-05T06:52:39;8.90;;;4.50;;
75810;SDS011;64449;50.016;19.954;2023-03-05T06:55:05;10.50;;;5.00;;
75810;SDS011;64449;50.016;19.954;2023-03-05T06:57:32;5.50;;;2.50;;
75810;SDS011;64449;50.016;19.954;2023-03-05T06:59:58;11.60;;;5.20;;
75810;SDS011;64449;50.016;19.954;2023-03-05T07:04:48;6.80;;;3.10;;
75810;SDS011;64449;50.016;19.954;2023-03-05T07:07:14;9.10;;;3.90;;
75810;SDS011;64449;50.016;19.954;2023-03-05T07:09:39;9.90;;;5.00;;
75810;SDS011;64449;50.016;19.954;2023-03-05T07:12:10;9.00;;;4.30;;
75810;SDS011;64449;50.016;19.954;2023-03-05T07:14:37;9.70;;;4.50;;
75810;SDS011;64449;50.016;19.954;2023-03-05T07:17:04;13.50;;;5.60;;
75810;SDS011;64449;50.016;19.954;2023-03-05T07:19:30;9.70;;;4.30;;
75810;SDS011;64449;50.016;19.954;2023-03-05T07:21:56;10.50;;;4.90;;
75810;SDS011;64449;50.016;19.954;2023-03-05T07:26:54;5.50;;;2.40;;
75810;SDS011;64449;50.016;19.954;2023-03-05T07:29:23;11.40;;;5.10;;
75810;SDS011;64449;50.016;19.954;2023-03-05T07:31:50;8.20;;;4.20;;
75810;SDS011;64449;50.016;19.954;2023-03-05T07:34:15;11.00;;;3.60;;
75810;SDS011;64449;50.016;19.954;2023-03-05T07:39:07;8.90;;;4.50;;
75810;SDS011;64449;50.016;19.954;2023-03-05T07:41:34;8.20;;;3.00;;
75810;SDS011;64449;50.016;19.954;2023-03-05T07:43:59;6.40;;;3.60;;
75810;SDS011;64449;50.016;19.954;2023-03-05T07:46:26;5.20;;;3.10;;
75810;SDS011;64449;50.016;19.954;2023-03-05T07:48:53;6.60;;;3.00;;
75810;SDS011;64449;50.016;19.954;2023-03-05T07:51:20;8.40;;;4.10;;
75810;SDS011;64449;50.016;19.954;2023-03-05T07:53:47;5.80;;;2.90;;
75810;SDS011;64449;50.016;19.954;2023-03-05T07:56:16;7.30;;;3.40;;
75810;SDS011;64449;50.016;19.954;2023-03-05T07:58:46;10.40;;;4.20;;
75810;SDS011;64449;50.016;19.954;2023-03-05T08:01:11;8.50;;;4.20;;
75810;SDS011;64449;50.016;19.954;2023-03-05T08:03:40;13.30;;;5.40;;
75810;SDS011;64449;50.016;19.954;2023-03-05T08:06:07;13.50;;;5.40;;
75810;SDS011;64449;50.016;19.954;2023-03-05T08:08:34;10.80;;;4.90;;
75810;SDS011;64449;50.016;19.954;2023-03-05T08:11:07;11.60;;;5.50;;
75810;SDS011;64449;50.016;19.954;2023-03-05T08:13:34;7.70;;;3.50;;
75810;SDS011;64449;50.016;19.954;2023-03-05T08:16:07;12.80;;;6.20;;
75810;SDS011;64449;50.016;19.954;2023-03-05T08:18:35;13.20;;;4.50;;
75810;SDS011;64449;50.016;19.954;2023-03-05T08:21:01;14.00;;;7.20;;
75810;SDS011;64449;50.016;19.954;2023-03-05T08:23:27;12.20;;;6.10;;
75810;SDS011;64449;50.016;19.954;2023-03-05T08:25:53;10.00;;;3.90;;
75810;SDS011;64449;50.016;19.954;2023-03-05T08:28:19;14.70;;;7.00;;
75810;SDS011;64449;50.016;19.954;2023-03-05T08:30:45;16.60;;;7.10;;
75810;SDS011;64449;50.016;19.954;2023-03-05T08:33:11;15.60;;;6.40;;
75810;SDS011;64449;50.016;19.954;2023-03-05T08:35:38;9.00;;;5.00;;
75810;SDS011;64449;50.016;19.954;2023-03-05T08:38:04;6.00;;;3.60;;
75810;SDS011;64449;50.016;19.954;2023-03-05T08:40:30;11.00;;;5.10;;
75810;SDS011;64449;50.016;19.954;2023-03-05T08:42:56;10.80;;;4.50;;
75810;SDS011;64449;50.016;19.954;2023-03-05T08:45:24;6.20;;;2.90;;
75810;SDS011;64449;50.016;19.954;2023-03-05T08:47:51;6.70;;;3.60;;
75810;SDS011;64449;50.016;19.954;2023-03-05T08:50:18;7.30;;;3.70;;
75810;SDS011;64449;50.016;19.954;2023-03-05T08:52:43;10.60;;;4.60;;
75810;SDS011;64449;50.016;19.954;2023-03-05T08:55:20;8.90;;;4.20;;
75810;SDS011;64449;50.016;19.954;2023-03-05T08:57:45;12.50;;;4.60;;
75810;SDS011;64449;50.016;19.954;2023-03-05T09:02:36;5.60;;;2.70;;
75810;SDS011;64449;50.016;19.954;2023-03-05T09:05:08;7.70;;;4.40;;
75810;SDS011;64449;50.016;19.954;2023-03-05T09:07:33;9.00;;;3.90;;
75810;SDS011;64449;50.016;19.954;2023-03-05T09:09:59;6.70;;;3.30;;
75810;SDS011;64449;50.016;19.954;2023-03-05T09:14:52;8.30;;;2.70;;
75810;SDS011;64449;50.016;19.954;2023-03-05T09:17:18;8.60;;;3.40;;
75810;SDS011;64449;50.016;19.954;2023-03-05T09:22:09;6.20;;;2.80;;
75810;SDS011;64449;50.016;19.954;2023-03-05T09:27:00;6.60;;;3.10;;
75810;SDS011;64449;50.016;19.954;2023-03-05T09:31:51;11.40;;;4.40;;
75810;SDS011;64449;50.016;19.954;2023-03-05T09:34:17;11.10;;;5.30;;
75810;SDS011;64449;50.016;19.954;2023-03-05T09:36:43;13.40;;;6.40;;
75810;SDS011;64449;50.016;19.954;2023-03-05T09:39:08;15.50;;;5.90;;
75810;SDS011;64449;50.016;19.954;2023-03-05T09:44:39;13.30;;;6.30;;
75810;SDS011;64449;50.016;19.954;2023-03-05T09:52:38;11.50;;;5.70;;
75810;SDS011;64449;50.016;19.954;2023-03-05T09:55:09;9.00;;;4.50;;
75810;SDS011;64449;50.016;19.954;2023-03-05T09:57:40;10.70;;;5.30;;
75810;SDS011;64449;50.016;19.954;2023-03-05T10:00:18;11.00;;;5.60;;
75810;SDS011;64449;50.016;19.954;2023-03-05T10:03:03;12.90;;;5.40;;
75810;SDS011;64449;50.016;19.954;2023-03-05T10:08:41;9.10;;;4.20;;
75810;SDS011;64449;50.016;19.954;2023-03-05T10:11:10;10.90;;;5.40;;
75810;SDS011;64449;50.016;19.954;2023-03-05T10:13:51;11.10;;;4.80;;
75810;SDS011;64449;50.016;19.954;2023-03-05T10:16:39;11.30;;;5.30;;
75810;SDS011;64449;50.016;19.954;2023-03-05T10:19:08;7.90;;;3.60;;
75810;SDS011;64449;50.016;19.954;2023-03-05T10:21:52;6.80;;;3.60;;
75810;SDS011;64449;50.016;19.954;2023-03-05T10:27:20;10.80;;;5.00;;
75810;SDS011;64449;50.016;19.954;2023-03-05T10:32:37;10.70;;;4.40;;
75810;SDS011;64449;50.016;19.954;2023-03-05T10:41:01;10.50;;;5.60;;
75810;SDS011;64449;50.016;19.954;2023-03-05T10:46:21;8.50;;;4.30;;
75810;SDS011;64449;50.016;19.954;2023-03-05T10:49:28;9.70;;;5.10;;
75810;SDS011;64449;50.016;19.954;2023-03-05T10:51:50;11.50;;;6.10;;
75810;SDS011;64449;50.016;19.954;2023-03-05T10:54:26;15.10;;;7.40;;
75810;SDS011;64449;50.016;19.954;2023-03-05T10:57:04;12.40;;;6.30;;
75810;SDS011;64449;50.016;19.954;2023-03-05T10:59:40;11.10;;;5.80;;
75810;SDS011;64449;50.016;19.954;2023-03-05T11:02:08;10.20;;;5.70;;
75810;SDS011;64449;50.016;19.954;2023-03-05T11:04:35;13.90;;;5.00;;
75810;SDS011;64449;50.016;19.954;2023-03-05T11:07:06;9.20;;;4.10;;
75810;SDS011;64449;50.016;19.954;2023-03-05T11:09:32;11.00;;;6.30;;
75810;SDS011;64449;50.016;19.954;2023-03-05T11:12:14;11.80;;;6.50;;
75810;SDS011;64449;50.016;19.954;2023-03-05T11:17:22;10.50;;;4.70;;
75810;SDS011;64449;50.016;19.954;2023-03-05T11:19:48;13.30;;;6.70;;
75810;SDS011;64449;50.016;19.954;2023-03-05T11:24:40;9.80;;;5.20;;
75810;SDS011;64449;50.016;19.954;2023-03-05T11:29:49;9.50;;;2.60;;
75810;SDS011;64449;50.016;19.954;2023-03-05T11:34:46;7.10;;;4.00;;
75810;SDS011;64449;50.016;19.954;2023-03-05T11:37:21;8.50;;;3.90;;
75810;SDS011;64449;50.016;19.954;2023-03-05T11:39:47;7.90;;;3.80;;
75810;SDS011;64449;50.016;19.954;2023-03-05T11:42:12;7.50;;;3.60;;
75810;SDS011;64449;50.016;19.954;2023-03-05T11:44:49;6.40;;;2.80;;
75810;SDS011;64449;50.016;19.954;2023-03-05T11:47:35;5.70;;;2.30;;
75810;SDS011;64449;50.016;19.954;2023-03-05T11:52:54;8.30;;;3.70;;
75810;SDS011;64449;50.016;19.954;2023-03-05T11:55:33;14.10;;;5.50;;
75810;SDS011;64449;50.016;19.954;2023-03-05T12:00:48;7.70;;;3.70;;
75810;SDS011;64449;50.016;19.954;2023-03-05T12:03:14;10.00;;;3.10;;
75810;SDS011;64449;50.016;19.954;2023-03-05T12:05:47;7.70;;;3.50;;
75810;SDS011;64449;50.016;19.954;2023-03-05T12:08:20;8.10;;;3.90;;
75810;SDS011;64449;50.016;19.954;2023-03-05T12:10:49;6.50;;;3.10;;
75810;SDS011;64449;50.016;19.954;2023-03-05T12:16:38;4.90;;;2.40;;
75810;SDS011;64449;50.016;19.954;2023-03-05T12:21:54;6.60;;;2.90;;
75810;SDS011;64449;50.016;19.954;2023-03-05T12:34:56;8.10;;;3.00;;
75810;SDS011;64449;50.016;19.954;2023-03-05T12:47:37;7.40;;;2.40;;
75810;SDS011;64449;50.016;19.954;2023-03-05T12:50:04;6.10;;;3.00;;
75810;SDS011;64449;50.016;19.954;2023-03-05T12:52:49;4.40;;;2.50;;
75810;SDS011;64449;50.016;19.954;2023-03-05T12:58:01;4.80;;;1.70;;
75810;SDS011;64449;50.016;19.954;2023-03-05T13:00:44;7.20;;;2.90;;
75810;SDS011;64449;50.016;19.954;2023-03-05T13:03:16;6.30;;;2.50;;
75810;SDS011;64449;50.016;19.954;2023-03-05T13:05:55;7.00;;;2.60;;
75810;SDS011;64449;50.016;19.954;2023-03-05T13:10:49;5.80;;;2.10;;
75810;SDS011;64449;50.016;19.954;2023-03-05T13:13:25;8.40;;;2.60;;
75810;SDS011;64449;50.016;19.954;2023-03-05T13:15:51;10.20;;;3.70;;
75810;SDS011;64449;50.016;19.954;2023-03-05T13:23:49;8.20;;;3.60;;
75810;SDS011;64449;50.016;19.954;2023-03-05T13:26:22;10.20;;;2.90;;
75810;SDS011;64449;50.016;19.954;2023-03-05T13:29:15;6.50;;;2.70;;
75810;SDS011;64449;50.016;19.954;2023-03-05T13:31:48;7.50;;;3.30;;
75810;SDS011;64449;50.016;19.954;2023-03-05T13:34:23;8.20;;;3.50;;
75810;SDS011;64449;50.016;19.954;2023-03-05T13:37:00;6.50;;;3.00;;
75810;SDS011;64449;50.016;19.954;2023-03-05T13:39:47;9.10;;;3.80;;
75810;SDS011;64449;50.016;19.954;2023-03-05T13:42:19;10.10;;;3.90;;
75810;SDS011;64449;50.016;19.954;2023-03-05T13:44:55;10.30;;;4.50;;
75810;SDS011;64449;50.016;19.954;2023-03-05T13:47:25;11.20;;;4.50;;
75810;SDS011;64449;50.016;19.954;2023-03-05T13:49:59;10.10;;;4.20;;
75810;SDS011;64449;50.016;19.954;2023-03-05T13:52:29;8.70;;;2.50;;
75810;SDS011;64449;50.016;19.954;2023-03-05T13:54:59;5.70;;;2.20;;
75810;SDS011;64449;50.016;19.954;2023-03-05T13:57:31;12.60;;;3.80;;
75810;SDS011;64449;50.016;19.954;2023-03-05T14:02:50;12.70;;;4.40;;
75810;SDS011;64449;50.016;19.954;2023-03-05T14:05:17;6.90;;;3.60;;
75810;SDS011;64449;50.016;19.954;2023-03-05T14:07:44;7.20;;;3.00;;
75810;SDS011;64449;50.016;19.954;2023-03-05T14:13:01;5.10;;;2.70;;
75810;SDS011;64449;50.016;19.954;2023-03-05T14:15:31;7.80;;;3.10;;
75810;SDS011;64449;50.016;19.954;2023-03-05T14:23:42;10.20;;;4.60;;
75810;SDS011;64449;50.016;19.954;2023-03-05T14:26:29;6.20;;;2.40;;
75810;SDS011;64449;50.016;19.954;2023-03-05T14:28:58;7.70;;;3.60;;
75810;SDS011;64449;50.016;19.954;2023-03-05T14:34:40;10.30;;;4.40;;
75810;SDS011;64449;50.016;19.954;2023-03-05T14:40:17;12.60;;;4.50;;
75810;SDS011;64449;50.016;19.954;2023-03-05T14:45:27;7.30;;;3.10;;
75810;SDS011;64449;50.016;19.954;2023-03-05T14:47:56;5.20;;;2.90;;
75810;SDS011;64449;50.016;19.954;2023-03-05T14:50:27;10.10;;;4.20;;
75810;SDS011;64449;50.016;19.954;2023-03-05T14:52:58;7.50;;;3.60;;
75810;SDS011;64449;50.016;19.954;2023-03-05T14:55:26;6.60;;;2.50;;
75810;SDS011;64449;50.016;19.954;2023-03-05T14:57:59;5.80;;;3.00;;
75810;SDS011;64449;50.016;19.954;2023-03-05T15:02:53;6.40;;;2.60;;
75810;SDS011;64449;50.016;19.954;2023-03-05T15:07:45;3.90;;;1.40;;
75810;SDS011;64449;50.016;19.954;2023-03-05T15:10:14;6.00;;;1.90;;
75810;SDS011;64449;50.016;19.954;2023-03-05T15:12:43;5.40;;;2.40;;
75810;SDS011;64449;50.016;19.954;2023-03-05T15:15:11;8.10;;;3.60;;
75810;SDS011;64449;50.016;19.954;2023-03-05T15:17:41;4.50;;;2.40;;
75810;SDS011;64449;50.016;19.954;2023-03-05T15:20:14;2.80;;;1.30;;
75810;SDS011;64449;50.016;19.954;2023-03-05T15:22:46;4.30;;;1.70;;
75810;SDS011;64449;50.016;19.954;2023-03-05T15:25:11;3.60;;;1.70;;
75810;SDS011;64449;50.016;19.954;2023-03-05T15:27:37;4.40;;;1.50;;
75810;SDS011;64449;50.016;19.954;2023-03-05T15:30:04;5.30;;;1.60;;
75810;SDS011;64449;50.016;19.954;2023-03-05T15:32:31;4.00;;;1.90;;
75810;SDS011;64449;50.016;19.954;2023-03-05T15:37:24;3.70;;;1.80;;
75810;SDS011;64449;50.016;19.954;2023-03-05T15:42:16;3.50;;;1.60;;
75810;SDS011;64449;50.016;19.954;2023-03-05T15:44:42;4.80;;;2.30;;
75810;SDS011;64449;50.016;19.954;2023-03-05T15:49:32;4.50;;;1.60;;
75810;SDS011;64449;50.016;19.954;2023-03-05T15:51:58;4.30;;;1.40;;
75810;SDS011;64449;50.016;19.954;2023-03-05T15:56:49;6.80;;;1.80;;
75810;SDS011;64449;50.016;19.954;2023-03-05T15:59:16;4.30;;;1.40;;
75810;SDS011;64449;50.016;19.954;2023-03-05T16:01:43;5.40;;;1.90;;
75810;SDS011;64449;50.016;19.954;2023-03-05T16:04:13;4.60;;;2.00;;
75810;SDS011;64449;50.016;19.954;2023-03-05T16:06:39;6.30;;;1.90;;
75810;SDS011;64449;50.016;19.954;2023-03-05T16:09:08;11.50;;;2.40;;
75810;SDS011;64449;50.016;19.954;2023-03-05T16:11:37;4.20;;;1.80;;
75810;SDS011;64449;50.016;19.954;2023-03-05T16:14:14;7.10;;;2.50;;
75810;SDS011;64449;50.016;19.954;2023-03-05T16:16:43;6.60;;;2.70;;
75810;SDS011;64449;50.016;19.954;2023-03-05T16:19:09;5.40;;;2.10;;
75810;SDS011;64449;50.016;19.954;2023-03-05T16:21:37;6.20;;;3.10;;
75810;SDS011;64449;50.016;19.954;2023-03-05T16:24:03;10.20;;;4.80;;
75810;SDS011;64449;50.016;19.954;2023-03-05T16:26:28;12.40;;;4.30;;
75810;SDS011;64449;50.016;19.954;2023-03-05T16:28:58;8.60;;;2.70;;
75810;SDS011;64449;50.016;19.954;2023-03-05T16:33:53;7.20;;;3.00;;
75810;SDS011;64449;50.016;19.954;2023-03-05T16:36:19;6.60;;;2.60;;
75810;SDS011;64449;50.016;19.954;2023-03-05T16:38:47;5.00;;;2.60;;
75810;SDS011;64449;50.016;19.954;2023-03-05T16:41:14;4.30;;;1.80;;
75810;SDS011;64449;50.016;19.954;2023-03-05T16:43:41;5.00;;;2.00;;
75810;SDS011;64449;50.016;19.954;2023-03-05T16:46:08;6.20;;;2.20;;
75810;SDS011;64449;50.016;19.954;2023-03-05T16:48:33;4.40;;;2.10;;
75810;SDS011;64449;50.016;19.954;2023-03-05T16:50:59;4.10;;;1.70;;
75810;SDS011;64449;50.016;19.954;2023-03-05T16:53:25;2.90;;;1.30;;
75810;SDS011;64449;50.016;19.954;2023-03-05T16:55:56;4.20;;;1.80;;
75810;SDS011;64449;50.016;19.954;2023-03-05T16:58:34;4.30;;;1.80;;
75810;SDS011;64449;50.016;19.954;2023-03-05T17:01:01;3.70;;;1.90;;
75810;SDS011;64449;50.016;19.954;2023-03-05T17:03:27;5.40;;;1.90;;
75810;SDS011;64449;50.016;19.954;2023-03-05T17:05:53;4.00;;;2.30;;
75810;SDS011;64449;50.016;19.954;2023-03-05T17:08:19;5.50;;;2.10;;
75810;SDS011;64449;50.016;19.954;2023-03-05T17:10:46;4.60;;;2.20;;
75810;SDS011;64449;50.016;19.954;2023-03-05T17:13:11;5.50;;;2.60;;
75810;SDS011;64449;50.016;19.954;2023-03-05T17:18:02;5.60;;;2.40;;
75810;SDS011;64449;50.016;19.954;2023-03-05T17:20:28;9.80;;;4.10;;
75810;SDS011;64449;50.016;19.954;2023-03-05T17:22:54;7.10;;;2.50;;
75810;SDS011;64449;50.016;19.954;2023-03-05T17:27:45;4.70;;;1.90;;
75810;SDS011;64449;50.016;19.954;2023-03-05T17:30:11;5.10;;;2.30;;
75810;SDS011;64449;50.016;19.954;2023-03-05T17:32:37;5.60;;;1.80;;
75810;SDS011;64449;50.016;19.954;2023-03-05T17:35:05;6.00;;;2.20;;
75810;SDS011;64449;50.016;19.954;2023-03-05T17:37:32;7.20;;;2.20;;
75810;SDS011;64449;50.016;19.954;2023-03-05T17:39:57;5.70;;;2.70;;
75810;SDS011;64449;50.016;19.954;2023-03-05T17:42:23;5.70;;;2.70;;
75810;SDS011;64449;50.016;19.954;2023-03-05T17:44:49;6.60;;;3.00;;
75810;SDS011;64449;50.016;19.954;2023-03-05T17:47:14;7.20;;;3.30;;
75810;SDS011;64449;50.016;19.954;2023-03-05T17:49:39;7.00;;;3.20;;
75810;SDS011;64449;50.016;19.954;2023-03-05T17:52:05;6.30;;;3.20;;
75810;SDS011;64449;50.016;19.954;2023-03-05T17:56:56;7.60;;;3.20;;
75810;SDS011;64449;50.016;19.954;2023-03-05T17:59:23;7.80;;;2.90;;
75810;SDS011;64449;50.016;19.954;2023-03-05T18:01:49;4.80;;;2.40;;